Time;durP1;ratioP1;P1;durP2;ratioP2;P2;SDS_P1;SDS_P2;PMS_P1;PMS_P2;Temp;Humidity;BMP_temperature;BMP_pressure;BME280_temperature;BME280_humidity;BME280_pressure;Samples;Min_cycle;Max_cycle;Signal;HPM_P1;HPM_P2
2022/11/24 00:02:05;;;;;;;17.30;10.67;;;;;;;11.18;59.10;100220.94;4996295;28;20724;-76
2022/11/24 00:04:30;;;;;;;17.40;11.00;;;;;;;11.15;58.97;100211.53;5019283;28;20382;-75
2022/11/24 00:06:56;;;;;;;17.03;11.07;;;;;;;11.09;59.02;100213.09;5012865;28;20832;-76
2022/11/24 00:09:21;;;;;;;15.40;10.80;;;;;;;11.19;58.61;100211.97;5018396;28;20816;-76
2022/11/24 00:11:47;;;;;;;24.10;15.80;;;;;;;11.22;58.42;100209.78;5016318;28;20455;-76
2022/11/24 00:14:12;;;;;;;23.30;16.30;;;;;;;11.28;58.18;100210.84;5017997;28;20384;-76
2022/11/24 00:16:38;;;;;;;19.42;13.95;;;;;;;11.28;58.12;100213.50;5010860;28;20937;-76
2022/11/24 00:19:08;;;;;;;20.63;13.97;;;;;;;11.29;58.16;100212.53;5015251;28;20514;-76
2022/11/24 00:21:35;;;;;;;32.85;22.77;;;;;;;11.34;58.29;100219.91;5014692;28;20847;-76
2022/11/24 00:24:00;;;;;;;19.70;12.43;;;;;;;11.22;58.32;100222.22;5017659;28;20395;-76
2022/11/24 00:26:31;;;;;;;18.75;12.00;;;;;;;11.07;58.89;100220.44;5013576;28;20748;-76
2022/11/24 00:29:00;;;;;;;15.77;11.45;;;;;;;11.08;59.09;100227.34;5020161;28;20387;-76
2022/11/24 00:31:29;;;;;;;16.70;11.32;;;;;;;11.09;58.92;100222.88;5011466;28;20395;-76
2022/11/24 00:33:58;;;;;;;18.20;11.87;;;;;;;11.12;58.82;100238.41;5013536;28;20386;-76
2022/11/24 00:36:27;;;;;;;16.15;11.52;;;;;;;11.19;58.62;100230.56;5023150;28;20379;-76
2022/11/24 00:38:55;;;;;;;19.53;13.67;;;;;;;11.25;58.49;100235.94;5018975;28;20393;-76
2022/11/24 00:41:21;;;;;;;16.70;11.20;;;;;;;11.21;58.33;100234.66;4997093;28;20388;-77
2022/11/24 00:43:46;;;;;;;28.83;19.35;;;;;;;11.17;58.48;100237.88;5013982;28;20943;-77
2022/11/24 00:46:12;;;;;;;17.87;12.27;;;;;;;11.19;58.57;100244.63;5008236;28;20382;-76
2022/11/24 00:48:38;;;;;;;17.30;12.35;;;;;;;11.17;58.70;100249.31;5021141;28;20380;-76
2022/11/24 00:51:06;;;;;;;31.60;21.83;;;;;;;11.18;58.50;100248.31;5018743;28;20806;-76
2022/11/24 00:53:32;;;;;;;18.52;12.13;;;;;;;11.19;58.74;100251.78;5020193;28;20418;-76
2022/11/24 00:55:58;;;;;;;19.67;12.30;;;;;;;11.19;58.68;100257.91;5013973;28;20380;-76
2022/11/24 00:58:24;;;;;;;18.10;11.55;;;;;;;11.08;58.91;100261.84;5019863;28;20398;-77
2022/11/24 01:00:50;;;;;;;21.08;13.25;;;;;;;11.09;58.99;100258.19;5009607;28;20391;-76
2022/11/24 01:03:17;;;;;;;19.70;12.45;;;;;;;11.13;58.79;100261.31;5010403;28;20391;-76
2022/11/24 01:05:43;;;;;;;23.00;14.52;;;;;;;11.21;58.83;100258.53;5022949;28;20394;-76
2022/11/24 01:08:09;;;;;;;22.90;15.13;;;;;;;11.28;58.27;100263.94;5018017;28;20381;-76
2022/11/24 01:10:35;;;;;;;20.05;12.75;;;;;;;11.26;58.35;100256.16;5018515;28;20400;-76
2022/11/24 01:13:00;;;;;;;18.95;12.60;;;;;;;11.27;58.32;100254.31;5017439;28;20722;-76
2022/11/24 01:15:26;;;;;;;18.90;12.50;;;;;;;11.23;58.17;100256.50;5013475;28;20399;-76
2022/11/24 01:17:52;;;;;;;20.95;12.98;;;;;;;11.29;58.40;100260.28;5011759;28;20416;-76
2022/11/24 01:20:18;;;;;;;18.90;12.20;;;;;;;11.28;58.22;100255.97;5017654;28;20882;-75
2022/11/24 01:22:43;;;;;;;22.30;12.87;;;;;;;11.31;58.30;100268.03;5016656;28;20827;-76
2022/11/24 01:25:10;;;;;;;19.23;12.53;;;;;;;11.31;58.16;100263.56;5021667;28;20404;-76
2022/11/24 01:27:37;;;;;;;20.10;12.32;;;;;;;11.28;58.18;100270.03;5015771;28;20878;-77
2022/11/24 01:30:05;;;;;;;18.30;12.35;;;;;;;11.22;58.37;100262.03;5014409;28;20418;-77
2022/11/24 01:32:35;;;;;;;19.23;12.77;;;;;;;11.17;58.59;100261.75;5017360;28;20384;-76
2022/11/24 01:35:01;;;;;;;21.08;13.18;;;;;;;11.17;58.66;100264.41;5019281;28;20395;-76
2022/11/24 01:37:26;;;;;;;19.90;14.70;;;;;;;11.00;58.81;100263.75;5018449;28;20454;-76
2022/11/24 01:39:52;;;;;;;20.67;13.80;;;;;;;10.89;59.29;100267.69;5016051;28;20412;-76
2022/11/24 01:42:17;;;;;;;21.13;13.13;;;;;;;10.82;59.37;100269.44;5028301;28;20374;-77
2022/11/24 01:44:43;;;;;;;18.75;13.05;;;;;;;10.92;59.23;100274.47;4997457;28;20396;-77
2022/11/24 01:47:11;;;;;;;17.80;11.80;;;;;;;10.78;59.57;100276.94;5015079;28;20766;-77
2022/11/24 01:49:47;;;;;;;18.52;12.10;;;;;;;10.53;60.16;100273.69;5026915;28;20769;-77
2022/11/24 01:52:18;;;;;;;19.63;12.10;;;;;;;10.45;60.61;100266.66;5023689;28;20382;-76
2022/11/24 01:54:52;;;;;;;16.65;11.80;;;;;;;10.31;61.03;100267.44;5019423;28;20880;-77
2022/11/24 01:57:25;;;;;;;18.90;12.20;;;;;;;10.26;61.43;100262.69;5026461;28;20472;-76
2022/11/24 01:59:57;;;;;;;19.25;12.27;;;;;;;10.28;61.22;100271.25;5033316;28;20847;-77
2022/11/24 02:02:24;;;;;;;18.67;12.20;;;;;;;10.32;61.54;100282.34;5019228;28;20731;-77
2022/11/24 02:04:50;;;;;;;18.17;12.25;;;;;;;10.30;61.64;100282.50;5022764;28;20384;-77
2022/11/24 02:07:16;;;;;;;18.40;12.88;;;;;;;10.30;61.67;100282.50;5000336;28;20368;-77
2022/11/24 02:09:55;;;;;;;20.60;12.73;;;;;;;10.34;61.58;100293.59;5020219;28;20419;-77
2022/11/24 02:12:24;;;;;;;22.23;13.15;;;;;;;10.30;61.81;100297.59;5023519;28;20395;-77
2022/11/24 02:14:50;;;;;;;22.58;13.77;;;;;;;10.32;62.31;100303.56;5020448;28;20411;-77
2022/11/24 02:17:15;;;;;;;21.65;13.93;;;;;;;10.29;61.83;100306.53;5023005;28;20512;-77
2022/11/24 02:19:57;;;;;;;18.00;12.20;;;;;;;10.21;62.39;100304.75;5024186;28;20407;-77
2022/11/24 02:22:35;;;;;;;17.85;12.20;;;;;;;10.27;62.07;100304.03;5018447;28;20395;-77
2022/11/24 02:25:12;;;;;;;18.27;12.00;;;;;;;10.25;62.31;100302.59;5016996;28;20388;-77
2022/11/24 02:27:37;;;;;;;18.98;12.07;;;;;;;10.18;63.06;100314.88;5017102;28;20384;-77
2022/11/24 02:30:03;;;;;;;17.33;11.55;;;;;;;10.17;62.99;100307.94;5017933;28;20450;-77
2022/11/24 02:32:31;;;;;;;20.33;13.25;;;;;;;10.17;62.57;100313.22;5016794;28;20395;-77
2022/11/24 02:35:05;;;;;;;17.02;10.25;;;;;;;9.91;63.41;100320.53;5027284;28;20409;-77
2022/11/24 02:37:30;;;;;;;14.80;9.70;;;;;;;9.76;63.56;100312.50;5017576;28;20495;-77
2022/11/24 02:39:56;;;;;;;13.63;8.80;;;;;;;9.69;63.35;100316.84;5016940;28;20394;-77
2022/11/24 02:42:22;;;;;;;12.20;8.03;;;;;;;9.50;63.63;100315.44;5016116;28;20384;-77
2022/11/24 02:44:53;;;;;;;11.52;7.35;;;;;;;9.55;63.50;100322.88;5018757;28;20850;-77
2022/11/24 02:47:18;;;;;;;9.27;6.93;;;;;;;9.41;63.60;100320.97;5021947;28;20384;-77
2022/11/24 02:49:44;;;;;;;11.33;7.70;;;;;;;9.44;63.05;100320.63;5000034;28;20462;-77
2022/11/24 02:52:09;;;;;;;12.17;8.57;;;;;;;9.72;62.56;100334.19;5019657;28;20470;-77
2022/11/24 02:54:35;;;;;;;10.33;7.50;;;;;;;9.69;62.13;100335.38;5018474;28;20446;-77
2022/11/24 02:57:00;;;;;;;12.48;9.55;;;;;;;9.70;62.29;100347.59;5017410;28;20416;-76
2022/11/24 02:59:26;;;;;;;8.30;5.10;;;;;;;9.51;61.72;100342.75;5016137;28;20899;-77
2022/11/24 03:01:51;;;;;;;7.47;4.17;;;;;;;9.34;61.84;100349.91;5020172;28;20488;-77
2022/11/24 03:04:17;;;;;;;6.57;3.15;;;;;;;8.85;62.56;100360.63;5015424;28;20404;-76
2022/11/24 03:06:42;;;;;;;4.93;3.57;;;;;;;9.03;62.81;100353.31;5012742;28;20395;-77
2022/11/24 03:09:09;;;;;;;5.73;3.83;;;;;;;9.33;62.25;100351.72;5023395;28;20956;-76
2022/11/24 03:11:35;;;;;;;4.65;2.83;;;;;;;9.38;61.18;100353.84;5015456;28;20416;-76
2022/11/24 03:14:00;;;;;;;3.13;2.30;;;;;;;9.21;61.24;100355.75;5018190;28;20390;-76
2022/11/24 03:16:26;;;;;;;4.45;2.50;;;;;;;9.22;61.28;100346.81;5017591;28;20399;-76
2022/11/24 03:18:52;;;;;;;5.83;3.50;;;;;;;9.11;61.18;100363.88;5019562;28;20428;-76
2022/11/24 03:21:18;;;;;;;3.10;1.47;;;;;;;8.85;61.53;100372.00;5017010;28;20400;-76
2022/11/24 03:23:43;;;;;;;1.87;1.30;;;;;;;8.64;61.98;100358.47;5003120;28;20851;-77
2022/11/24 03:26:11;;;;;;;2.38;1.60;;;;;;;8.71;61.96;100368.22;5017269;28;20463;-76
2022/11/24 03:28:37;;;;;;;2.70;1.80;;;;;;;8.77;61.87;100372.84;5011268;28;20391;-77
2022/11/24 03:31:02;;;;;;;2.65;2.05;;;;;;;8.91;61.95;100368.72;5015244;28;20404;-77
2022/11/24 03:33:28;;;;;;;3.40;2.00;;;;;;;8.93;61.91;100376.44;5023224;28;20857;-76
2022/11/24 03:35:53;;;;;;;2.90;1.90;;;;;;;8.76;62.05;100373.00;5017281;28;20463;-77
2022/11/24 03:38:19;;;;;;;3.90;2.00;;;;;;;8.72;61.93;100374.34;5020867;28;20407;-77
2022/11/24 03:40:44;;;;;;;2.60;1.93;;;;;;;8.68;62.03;100384.41;5016189;28;20736;-77
2022/11/24 03:43:10;;;;;;;3.03;2.20;;;;;;;8.68;62.16;100383.56;5018743;28;20386;-77
2022/11/24 03:45:35;;;;;;;3.55;2.15;;;;;;;8.78;61.89;100382.41;5015798;28;20804;-76
2022/11/24 03:48:01;;;;;;;3.45;2.45;;;;;;;8.74;61.88;100385.56;5016849;28;20686;-77
2022/11/24 03:50:27;;;;;;;1.97;1.43;;;;;;;8.51;62.35;100382.75;5018889;28;20943;-77
2022/11/24 03:52:52;;;;;;;2.60;1.70;;;;;;;8.34;63.06;100388.00;5003244;28;20394;-77
2022/11/24 03:55:18;;;;;;;3.30;2.47;;;;;;;8.55;63.10;100395.47;4998525;28;20465;-76
2022/11/24 03:57:43;;;;;;;2.73;1.83;;;;;;;8.49;62.68;100400.59;5022271;28;20419;-76
2022/11/24 04:00:10;;;;;;;3.03;2.17;;;;;;;8.58;62.73;100395.13;5012760;28;20461;-77
2022/11/24 04:02:35;;;;;;;2.75;2.17;;;;;;;8.74;62.05;100393.50;5030577;28;20374;-76
2022/11/24 04:05:00;;;;;;;2.00;1.70;;;;;;;8.59;62.21;100409.19;5030851;28;20444;-74
2022/11/24 04:07:26;;;;;;;1.70;1.57;;;;;;;8.50;62.36;100403.06;5014256;28;21001;-77
2022/11/24 04:09:52;;;;;;;2.97;1.60;;;;;;;8.41;62.50;100407.47;5013195;28;20431;-77
2022/11/24 04:15:01;;;;;;;2.27;1.60;;;;;;;8.30;62.83;100423.66;5012458;28;20410;-75
2022/11/24 04:17:27;;;;;;;2.30;1.70;;;;;;;8.27;62.40;100423.97;5008453;28;20398;-75
2022/11/24 04:19:53;;;;;;;3.25;2.10;;;;;;;8.38;61.99;100425.47;5012726;28;20407;-76
2022/11/24 04:22:18;;;;;;;2.57;1.40;;;;;;;8.13;62.54;100428.06;5027133;28;20390;-76
2022/11/24 04:24:43;;;;;;;1.60;1.30;;;;;;;8.19;62.88;100431.84;5012931;28;20437;-76
2022/11/24 04:27:09;;;;;;;2.63;1.73;;;;;;;8.31;62.16;100435.03;5011625;28;20383;-76
2022/11/24 04:29:34;;;;;;;1.88;1.30;;;;;;;8.38;62.01;100442.13;5011664;28;20493;-76
2022/11/24 04:32:00;;;;;;;2.77;1.30;;;;;;;8.30;62.12;100447.41;5017307;28;20404;-77
2022/11/24 04:34:25;;;;;;;2.20;1.50;;;;;;;8.46;61.85;100448.44;4996102;28;20485;-77
2022/11/24 04:36:51;;;;;;;3.55;1.95;;;;;;;8.41;61.70;100454.22;5011598;28;20400;-77
2022/11/24 04:39:16;;;;;;;3.97;1.83;;;;;;;8.40;61.78;100447.25;5013080;28;20380;-77
2022/11/24 04:41:42;;;;;;;2.37;1.50;;;;;;;8.54;61.38;100462.50;5016673;28;20483;-78
2022/11/24 04:44:07;;;;;;;2.30;1.40;;;;;;;8.23;62.29;100464.91;5023877;28;20500;-77
2022/11/24 04:46:33;;;;;;;1.27;1.03;;;;;;;8.14;62.33;100463.19;5022466;28;20399;-77
2022/11/24 04:48:58;;;;;;;2.13;1.45;;;;;;;8.01;62.60;100471.56;5018571;28;20468;-77
2022/11/24 04:51:24;;;;;;;2.40;1.60;;;;;;;8.12;62.66;100473.09;5021871;28;20394;-77
2022/11/24 04:53:49;;;;;;;1.93;1.50;;;;;;;7.96;62.64;100472.06;5016108;28;20869;-77
2022/11/24 04:56:15;;;;;;;3.28;1.60;;;;;;;8.21;62.12;100478.25;5006078;28;20400;-77
2022/11/24 04:58:40;;;;;;;2.93;1.50;;;;;;;8.20;62.00;100476.59;5014361;28;20804;-77
2022/11/24 05:01:07;;;;;;;3.13;1.90;;;;;;;8.15;61.89;100478.88;5025752;28;20407;-77
2022/11/24 05:03:33;;;;;;;2.90;2.00;;;;;;;8.28;61.84;100486.34;5013475;28;20380;-77
2022/11/24 05:05:59;;;;;;;2.55;1.80;;;;;;;8.14;61.60;100494.88;5023310;28;20394;-77
2022/11/24 05:08:24;;;;;;;4.37;2.10;;;;;;;8.09;62.22;100491.91;5035242;28;20391;-77
2022/11/24 05:10:50;;;;;;;2.10;1.70;;;;;;;8.26;61.75;100492.78;5020683;28;20704;-77
2022/11/24 05:13:15;;;;;;;3.20;2.00;;;;;;;8.21;61.80;100495.88;5035306;28;20448;-77
2022/11/24 05:15:41;;;;;;;3.13;2.23;;;;;;;8.26;61.83;100498.88;5024659;28;20499;-77
2022/11/24 05:18:09;;;;;;;4.40;2.50;;;;;;;8.16;61.28;100496.38;5022850;28;20437;-76
2022/11/24 05:20:35;;;;;;;4.00;2.60;;;;;;;8.22;61.54;100508.94;5024283;28;20458;-76
2022/11/24 05:23:02;;;;;;;2.97;1.85;;;;;;;8.34;61.11;100517.41;5021347;28;20398;-76
2022/11/24 05:25:28;;;;;;;2.00;1.50;;;;;;;8.24;61.29;100522.81;5021855;28;20382;-77
2022/11/24 05:27:53;;;;;;;4.70;2.15;;;;;;;8.17;61.72;100527.06;5025586;28;20391;-76
2022/11/24 05:30:19;;;;;;;3.70;2.10;;;;;;;8.28;61.79;100525.13;5022766;28;20486;-78
2022/11/24 05:32:44;;;;;;;2.93;2.00;;;;;;;8.36;61.38;100527.81;5023279;28;21117;-78
2022/11/24 05:35:10;;;;;;;3.50;2.33;;;;;;;8.26;61.62;100527.13;5030177;28;20790;-78
2022/11/24 05:37:36;;;;;;;7.30;3.58;;;;;;;8.22;61.66;100531.88;5028027;28;20538;-78
2022/11/24 05:40:03;;;;;;;5.20;2.90;;;;;;;8.20;62.39;100533.84;5031360;28;20432;-78
2022/11/24 05:42:40;;;;;;;5.18;3.22;;;;;;;8.13;62.37;100530.19;5035358;28;20382;-78
2022/11/24 05:45:11;;;;;;;5.13;2.70;;;;;;;8.18;62.11;100525.28;5044624;28;20397;-77
2022/11/24 05:47:38;;;;;;;6.55;3.95;;;;;;;8.14;61.95;100531.84;5039150;28;20374;-76
2022/11/24 05:50:04;;;;;;;4.40;2.95;;;;;;;8.14;62.53;100540.59;5041969;28;20485;-77
2022/11/24 05:52:29;;;;;;;2.70;2.27;;;;;;;8.11;62.04;100540.91;5040236;28;20386;-76
2022/11/24 05:54:55;;;;;;;3.53;2.67;;;;;;;8.13;61.64;100543.41;5027973;28;20446;-77
2022/11/24 05:57:20;;;;;;;5.40;3.28;;;;;;;8.20;62.01;100552.34;5026806;28;20411;-78
2022/11/24 05:59:46;;;;;;;5.93;3.87;;;;;;;8.30;61.60;100553.06;5030906;28;20402;-77
2022/11/24 06:02:11;;;;;;;7.03;3.87;;;;;;;8.24;61.84;100557.13;5017453;28;20471;-77
2022/11/24 06:04:37;;;;;;;5.28;3.67;;;;;;;8.16;61.72;100558.94;5013717;28;20756;-77
2022/11/24 06:07:05;;;;;;;7.57;3.40;;;;;;;8.26;61.48;100567.53;5028619;28;20378;-76
2022/11/24 06:09:31;;;;;;;8.68;3.75;;;;;;;8.45;61.38;100568.34;5021399;28;20411;-77
2022/11/24 06:11:56;;;;;;;3.73;2.00;;;;;;;8.50;60.98;100563.38;5020607;28;20479;-78
2022/11/24 06:14:22;;;;;;;5.17;2.97;;;;;;;8.53;61.03;100569.16;5018034;28;20723;-76
2022/11/24 06:16:47;;;;;;;6.03;3.67;;;;;;;8.59;60.48;100578.28;5021211;28;20615;-77
2022/11/24 06:19:13;;;;;;;7.23;3.60;;;;;;;8.61;60.63;100585.06;5014851;28;20911;-75
2022/11/24 06:21:38;;;;;;;7.60;4.40;;;;;;;8.56;61.12;100582.06;5016730;28;20813;-75
2022/11/24 06:24:04;;;;;;;6.60;4.30;;;;;;;8.60;60.95;100601.06;5029804;28;20382;-76
2022/11/24 06:26:30;;;;;;;8.27;5.05;;;;;;;8.59;60.77;100594.13;5022112;28;20835;-77
2022/11/24 06:28:56;;;;;;;7.17;3.03;;;;;;;8.60;60.49;100599.22;5022497;28;20886;-76
2022/11/24 06:31:21;;;;;;;6.80;3.90;;;;;;;8.50;61.12;100603.84;5027024;28;20405;-76
2022/11/24 06:33:47;;;;;;;6.60;3.40;;;;;;;8.54;60.63;100610.47;5025815;28;20396;-76
2022/11/24 06:36:13;;;;;;;6.53;3.08;;;;;;;8.60;60.88;100607.16;5013163;28;20482;-76
2022/11/24 06:38:39;;;;;;;5.00;3.13;;;;;;;8.65;60.54;100616.44;5018526;28;20404;-75
2022/11/24 06:41:08;;;;;;;5.03;3.60;;;;;;;8.72;60.42;100610.34;5015679;28;20394;-76
2022/11/24 06:43:34;;;;;;;5.33;4.00;;;;;;;8.80;60.30;100615.69;5015729;28;20403;-76
2022/11/24 06:46:01;;;;;;;5.95;4.50;;;;;;;8.98;59.58;100625.28;5020245;28;20405;-77
2022/11/24 06:48:27;;;;;;;6.18;4.43;;;;;;;9.09;59.56;100632.94;5017179;28;20858;-76
2022/11/24 06:50:57;;;;;;;11.85;7.03;;;;;;;9.20;59.63;100629.16;5021155;28;20431;-76
2022/11/24 06:53:22;;;;;;;21.13;13.25;;;;;;;9.25;59.52;100626.00;5027517;28;20411;-76
2022/11/24 06:55:49;;;;;;;20.67;12.93;;;;;;;9.31;59.59;100633.28;5026822;28;20382;-76
2022/11/24 06:58:14;;;;;;;16.40;11.10;;;;;;;9.37;59.64;100622.88;5029178;28;20438;-75
2022/11/24 07:00:40;;;;;;;13.10;9.40;;;;;;;9.46;59.48;100633.47;5017805;28;20524;-76
2022/11/24 07:03:06;;;;;;;7.28;6.30;;;;;;;9.53;59.42;100632.63;5031210;28;20422;-76
2022/11/24 07:05:31;;;;;;;4.70;3.83;;;;;;;9.60;59.46;100635.47;5014739;28;20386;-78
2022/11/24 07:08:00;;;;;;;4.10;3.30;;;;;;;9.54;58.70;100630.81;5024336;28;20460;-76
2022/11/24 07:10:26;;;;;;;5.37;3.83;;;;;;;9.49;58.72;100639.25;5029861;28;20728;-75
2022/11/24 07:12:51;;;;;;;9.33;5.37;;;;;;;9.45;58.73;100639.75;5015433;28;20487;-76
2022/11/24 07:15:17;;;;;;;14.65;9.02;;;;;;;9.44;58.75;100632.81;5014954;28;20400;-77
2022/11/24 07:17:42;;;;;;;15.50;9.97;;;;;;;9.47;58.49;100632.47;5015684;28;20404;-75
2022/11/24 07:20:08;;;;;;;13.97;8.50;;;;;;;9.56;58.06;100642.06;5018664;28;20476;-76
2022/11/24 07:22:34;;;;;;;33.30;20.95;;;;;;;9.60;58.22;100645.19;5017724;28;20384;-76
2022/11/24 07:24:59;;;;;;;13.55;10.20;;;;;;;9.56;57.96;100637.63;5013371;28;20765;-76
2022/11/24 07:27:29;;;;;;;25.02;16.05;;;;;;;9.68;58.34;100640.75;5023602;28;20468;-75
2022/11/24 07:29:54;;;;;;;13.07;7.40;;;;;;;9.76;57.74;100637.28;5011489;28;21356;-78
2022/11/24 07:32:20;;;;;;;13.30;8.27;;;;;;;9.86;57.66;100647.69;5023461;28;20955;-75
2022/11/24 07:34:45;;;;;;;10.40;7.60;;;;;;;9.95;57.27;100649.31;5022015;28;20392;-77
2022/11/24 07:37:10;;;;;;;11.57;8.13;;;;;;;9.92;57.27;100647.00;5026946;28;20410;-76
2022/11/24 07:39:36;;;;;;;29.87;18.80;;;;;;;10.00;57.60;100644.34;5015286;28;20959;-77
2022/11/24 07:42:03;;;;;;;15.73;10.50;;;;;;;10.12;57.28;100647.50;5025976;28;20497;-77
2022/11/24 07:44:29;;;;;;;15.48;11.00;;;;;;;10.18;56.97;100648.63;5023856;28;20460;-77
2022/11/24 07:46:55;;;;;;;14.77;10.52;;;;;;;10.14;56.64;100641.03;5018054;28;20886;-77
2022/11/24 07:49:20;;;;;;;14.60;10.05;;;;;;;10.09;56.62;100643.34;5025566;28;20794;-76
2022/11/24 07:51:46;;;;;;;13.20;9.27;;;;;;;9.98;56.16;100632.28;5025759;28;20481;-76
2022/11/24 07:54:11;;;;;;;13.27;9.43;;;;;;;10.02;56.20;100633.59;5024593;28;20398;-77
2022/11/24 07:56:37;;;;;;;9.63;7.00;;;;;;;9.91;56.22;100630.31;5026652;28;20428;-76
2022/11/24 07:59:03;;;;;;;12.70;9.40;;;;;;;10.07;56.38;100632.09;5026023;28;20382;-76
2022/11/24 08:01:28;;;;;;;11.55;6.97;;;;;;;10.27;56.65;100632.53;5022532;28;20461;-75
2022/11/24 08:03:54;;;;;;;8.40;5.23;;;;;;;10.08;55.67;100631.13;5025031;28;20402;-77
2022/11/24 08:06:20;;;;;;;8.97;6.37;;;;;;;10.11;56.28;100638.69;5022627;28;20394;-75
2022/11/24 08:08:45;;;;;;;10.15;6.10;;;;;;;10.25;55.93;100636.38;5024211;28;20910;-75
2022/11/24 08:11:14;;;;;;;15.90;10.17;;;;;;;10.29;55.53;100635.03;5024419;28;20435;-74
2022/11/24 08:13:40;;;;;;;10.75;6.75;;;;;;;10.24;55.59;100642.66;5023630;28;20408;-75
2022/11/24 08:16:10;;;;;;;6.78;4.82;;;;;;;10.29;55.13;100648.28;5021177;28;20393;-75
2022/11/24 08:18:37;;;;;;;6.95;4.45;;;;;;;10.04;54.90;100645.66;5025004;28;20406;-76
2022/11/24 08:21:03;;;;;;;4.13;3.05;;;;;;;10.07;54.31;100648.00;5024421;28;20406;-75
2022/11/24 08:23:29;;;;;;;4.57;3.72;;;;;;;9.97;55.20;100647.34;5024880;28;20422;-74
2022/11/24 08:25:56;;;;;;;4.95;3.50;;;;;;;10.11;55.17;100648.47;5025580;28;20767;-76
2022/11/24 08:28:22;;;;;;;5.50;3.85;;;;;;;10.25;54.94;100649.63;5008430;28;20732;-75
2022/11/24 08:30:48;;;;;;;3.83;3.10;;;;;;;10.33;54.54;100652.25;5028390;28;20406;-75
2022/11/24 08:33:13;;;;;;;4.43;3.07;;;;;;;10.19;53.92;100656.44;5024740;28;20471;-76
2022/11/24 08:35:39;;;;;;;4.35;3.05;;;;;;;10.28;53.98;100657.22;5026479;28;20400;-76
2022/11/24 08:38:05;;;;;;;4.35;2.95;;;;;;;10.29;54.18;100658.88;5030391;28;21301;-76
2022/11/24 08:40:31;;;;;;;4.20;3.43;;;;;;;10.32;53.15;100659.41;5026484;28;20406;-77
2022/11/24 08:42:58;;;;;;;4.95;3.67;;;;;;;10.46;53.87;100668.47;5036924;28;20856;-75
2022/11/24 08:45:24;;;;;;;3.97;2.90;;;;;;;10.18;53.67;100660.06;5020171;28;20857;-75
2022/11/24 08:47:55;;;;;;;4.10;3.00;;;;;;;10.38;53.58;100662.38;5029814;28;20544;-76
2022/11/24 08:50:21;;;;;;;3.60;2.80;;;;;;;10.54;53.62;100664.97;5012882;28;20372;-76
2022/11/24 08:52:47;;;;;;;3.78;2.92;;;;;;;10.51;53.64;100657.34;4997421;28;20406;-78
2022/11/24 08:55:13;;;;;;;4.00;2.80;;;;;;;10.55;52.78;100663.13;5030797;28;20783;-76
2022/11/24 08:57:38;;;;;;;4.40;3.10;;;;;;;10.58;52.68;100676.06;5029058;28;20407;-75
2022/11/24 09:00:05;;;;;;;3.30;2.67;;;;;;;10.70;52.77;100674.69;5025252;28;20410;-77
2022/11/24 09:02:31;;;;;;;3.53;2.75;;;;;;;10.71;52.04;100668.38;5020010;28;20401;-77
2022/11/24 09:04:57;;;;;;;3.07;2.77;;;;;;;10.64;52.30;100664.75;5005160;28;20451;-75
2022/11/24 09:07:23;;;;;;;3.63;3.00;;;;;;;10.73;52.23;100661.06;5025985;28;20387;-77
2022/11/24 09:09:48;;;;;;;4.43;3.03;;;;;;;10.82;52.31;100661.84;5032134;28;20956;-76
2022/11/24 09:12:14;;;;;;;4.10;3.17;;;;;;;10.85;52.83;100657.03;5033024;28;20458;-79
2022/11/24 09:14:39;;;;;;;4.07;3.27;;;;;;;10.86;52.93;100669.31;5026395;28;20729;-77
2022/11/24 09:17:05;;;;;;;3.78;2.80;;;;;;;10.76;53.37;100658.06;5026525;28;20409;-75
2022/11/24 09:19:30;;;;;;;4.27;3.60;;;;;;;10.63;51.92;100663.13;5037112;28;20390;-76
2022/11/24 09:21:56;;;;;;;7.80;5.83;;;;;;;10.66;52.19;100673.34;5030515;28;20499;-75
2022/11/24 09:24:21;;;;;;;4.13;2.92;;;;;;;10.57;52.26;100664.63;5012631;28;20396;-76
2022/11/24 09:26:47;;;;;;;5.73;3.90;;;;;;;10.59;52.57;100662.63;5024254;28;20441;-76
2022/11/24 09:29:12;;;;;;;4.37;3.77;;;;;;;10.80;52.68;100669.16;5028474;28;20960;-76
2022/11/24 09:31:38;;;;;;;4.63;3.30;;;;;;;10.96;52.56;100650.50;5021378;28;20413;-76
2022/11/24 09:34:06;;;;;;;4.93;3.67;;;;;;;11.10;51.69;100660.38;5021793;28;20390;-77
2022/11/24 09:36:31;;;;;;;4.38;3.70;;;;;;;11.42;52.51;100650.56;5026193;28;20417;-76
2022/11/24 09:38:58;;;;;;;5.63;3.90;;;;;;;11.62;51.18;100650.91;5022689;28;20491;-75
2022/11/24 09:41:38;;;;;;;4.15;3.53;;;;;;;11.51;51.04;100640.72;5014947;28;20418;-76
2022/11/24 09:44:44;;;;;;;3.55;3.15;;;;;;;11.61;50.98;100641.31;5015927;28;20388;-77
2022/11/24 09:47:16;;;;;;;5.05;3.33;;;;;;;11.48;50.26;100635.75;5000152;28;20471;-77
2022/11/24 09:49:50;;;;;;;5.45;3.30;;;;;;;11.46;50.85;100640.44;5025752;28;20402;-75
2022/11/24 09:52:19;;;;;;;6.95;3.08;;;;;;;11.37;50.00;100642.31;5026651;28;20378;-75
2022/11/24 09:54:54;;;;;;;4.67;3.13;;;;;;;11.08;50.20;100651.78;5030002;28;21082;-75
2022/11/24 09:57:23;;;;;;;7.35;3.60;;;;;;;11.33;51.06;100648.97;5032838;28;20495;-76
2022/11/24 09:59:48;;;;;;;3.65;2.70;;;;;;;11.39;49.45;100658.88;5031769;28;20377;-77
2022/11/24 10:02:14;;;;;;;2.97;2.25;;;;;;;11.18;48.90;100661.34;5034920;28;20873;-78
2022/11/24 10:04:45;;;;;;;4.50;2.93;;;;;;;11.12;49.50;100676.13;5032443;28;20379;-76
2022/11/24 10:07:10;;;;;;;4.32;3.05;;;;;;;10.84;49.59;100657.22;5031421;28;20379;-78
2022/11/24 10:09:42;;;;;;;5.82;3.80;;;;;;;11.22;50.12;100667.97;5023210;28;20416;-76
2022/11/24 10:12:26;;;;;;;6.55;4.55;;;;;;;11.37;49.36;100655.59;5024458;28;20514;-80
2022/11/24 10:15:07;;;;;;;3.20;2.90;;;;;;;11.31;49.27;100658.94;5024756;28;20396;-78
2022/11/24 10:17:50;;;;;;;5.20;3.53;;;;;;;11.42;49.60;100650.56;5021666;28;20406;-77
2022/11/24 10:21:05;;;;;;;4.00;3.25;;;;;;;11.39;49.38;100635.00;5028518;28;20909;-77
2022/11/24 10:23:40;;;;;;;5.03;3.40;;;;;;;11.77;49.77;100647.47;4999131;28;20383;-76
2022/11/24 10:26:19;;;;;;;4.93;3.15;;;;;;;11.59;48.63;100643.28;5012227;28;21009;-77
2022/11/24 10:28:52;;;;;;;4.53;3.22;;;;;;;11.78;48.30;100665.06;5029427;28;20398;-78
2022/11/24 10:31:29;;;;;;;5.53;3.37;;;;;;;11.51;48.85;100661.16;5027849;28;20399;-76
2022/11/24 10:33:59;;;;;;;5.78;3.25;;;;;;;11.67;48.35;100653.88;5023889;28;20392;-76
2022/11/24 10:36:41;;;;;;;4.60;2.85;;;;;;;11.50;47.89;100655.00;5021506;28;20392;-77
2022/11/24 10:39:35;;;;;;;4.88;3.65;;;;;;;11.47;48.97;100650.88;5027610;28;21109;-77
2022/11/24 10:42:13;;;;;;;6.28;3.78;;;;;;;11.54;48.16;100655.47;5028970;28;20433;-76
2022/11/24 10:44:41;;;;;;;8.13;4.93;;;;;;;11.11;48.57;100647.97;5024648;28;20839;-78
2022/11/24 10:47:18;;;;;;;5.13;3.20;;;;;;;11.29;47.88;100645.03;5022092;28;20399;-77
2022/11/24 10:50:09;;;;;;;5.40;3.30;;;;;;;11.10;47.60;100633.03;5022940;28;20414;-77
2022/11/24 10:52:41;;;;;;;4.63;3.05;;;;;;;11.02;47.36;100639.22;5021077;28;20759;-75
2022/11/24 10:55:08;;;;;;;5.65;3.10;;;;;;;11.28;47.99;100625.63;5030303;28;20406;-78
2022/11/24 10:57:38;;;;;;;6.18;4.32;;;;;;;11.62;48.23;100629.69;5022426;28;20409;-78
2022/11/24 11:00:23;;;;;;;18.30;16.45;;;;;;;11.85;47.48;100631.47;5030747;28;20777;-76
2022/11/24 11:03:08;;;;;;;8.15;6.80;;;;;;;11.74;48.09;100640.72;5029939;28;20381;-76
2022/11/24 11:05:41;;;;;;;5.47;3.67;;;;;;;11.75;47.95;100647.66;5022264;28;20392;-78
2022/11/24 11:08:13;;;;;;;5.22;3.85;;;;;;;11.50;48.01;100646.22;5041134;28;20395;-79
2022/11/24 11:10:39;;;;;;;11.38;10.30;;;;;;;11.77;48.22;100636.84;5028127;28;20406;-77
2022/11/24 11:13:31;;;;;;;5.05;4.53;;;;;;;11.92;47.66;100642.22;5001660;28;20381;-77
2022/11/24 11:15:57;;;;;;;4.50;3.78;;;;;;;11.85;47.36;100639.44;5018414;28;20411;-75
2022/11/24 11:18:31;;;;;;;4.00;3.20;;;;;;;11.58;47.15;100632.88;5023602;28;20416;-76
2022/11/24 11:21:00;;;;;;;4.63;3.67;;;;;;;11.58;47.60;100638.19;5016644;28;20496;-78
2022/11/24 11:23:33;;;;;;;4.18;3.55;;;;;;;11.83;47.65;100636.97;5021882;28;20777;-77
2022/11/24 11:26:21;;;;;;;8.43;7.72;;;;;;;12.00;47.77;100634.19;5028176;28;20836;-77
2022/11/24 11:29:01;;;;;;;4.88;3.20;;;;;;;12.08;47.21;100635.94;5022569;28;20391;-78
2022/11/24 11:31:28;;;;;;;7.38;6.68;;;;;;;12.19;48.07;100640.78;5027191;28;20390;-78